Používaním stránok prevádzkovaných PROFIPILOT, s.r.o. súhlasíte s používaním cookies, ktoré nám pomáhajú zabezpečiť lepšie služby.OK

Briefing

MAPA | METAR | TAF | METEO SITUÁCIA
MAPA | METAR | TAF | METEO SITUÁCIA

Predpoveď na dnes

Premenlivá, prechodne až veľká oblačnosť, na severe a východe dopoludnia oblačno až zamračené. Na viacerých miestach prehánky alebo dážď, ojedinele aj búrky, od cca 1200 m zrážky snehové. Chladno a veterno! Najvyššia denná teplota 11 až 16, na severe a Horehroní 6 až 11 st. Teplota na horách vo výške 1500 m okolo 0 st. Prevažne severozápadný vietor 4 až 10, v nárazoch miestami 15 až 23 m/s (15 až 35, nárazy 55 až 85 km/h), na juhozápade a v Popradskej kotline zrána lokálne okolo 13 m/s (45 km/h), s nárazmi lokálne aj okolo 26 m/s (95 km/h). Vo vysokých polohách spočiatku búrlivý vietor až silná víchrica. Predpokladané množstvo zrážok: do 5 mm, na severe ojedinele okolo 10 mm

SHMÚ, OMPaV, LU 24.9.2018 05:30 LSEČ

MAPA | METAR | TAF | METEO SITUÁCIA

TAF - Letisková predpoveď

24.09.2018 - 02:00 UTC

TAF LZSL 240200Z 2403/2412 30010KT 9999 -RA FEW024 OVC053
     TEMPO 2403/2405 4000 RA SCT011 OVC040
     TEMPO 2403/2406 34015G28KT
     BECMG 2406/2408 NSW SCT050
     PROB40 TEMPO 2409/2412 -SHRA BKN045=
 TAF LZZI 240200Z 2403/2412 26012KT 9999 -RA SCT013 BKN040
     TEMPO 2403/2406 30016G28KT 5000 RA BKN009 OVC023
     BECMG 2406/2408 31007KT NSW FEW022 SCT050=
 

23.09.2018 - 17:00 UTC (Včera)

TAF AMD LZIB 232218Z 2322/2418 34012KT 9999 FEW020 SCT045 BKN080
     TEMPO 2322/2323 30015G25KT 5000 -TSRA SCT013 FEW025CB BKN043
     BECMG 2323/2401 7000 RA FEW015 SCT027 OVC050
     TEMPO 2400/2407 33020G35KT
     BECMG 2406/2408 9999 SCT040 SCT100
     PROB40 TEMPO 2410/2416 31017G27KT SHRA BKN037=
 TAF AMD LZTT 232218Z 2322/2418 24015KT 9999 SCT035 BKN070
     TEMPO 2322/2405 27020G45KT 5000 RA BKN016 OVC040
     PROB40 TEMPO 2322/2400 3000 TSRA SCT013CB BKN030
     BECMG 2406/2408 27010KT
     BECMG 2408/2410 FEW030 SCT050=
 

23.09.2018 - 11:00 UTC (Včera)

TAF LZSL 231100Z 2312/2321 20010KT 9999 FEW032 BKN055
     TEMPO 2312/2318 -RA SCT024 OVC042
     BECMG 2317/2319 16006KT=
 TAF LZPP 231100Z 2312/2321 22011KT 9999 FEW030 BKN045
     BECMG 2315/2317 18015KT
     BECMG 2319/2321 CAVOK=
 TAF LZZI 231100Z 2312/2321 25008KT 9999 FEW030 BKN045
     TEMPO 2315/2320 22012KT -RA SCT023 OVC038=
 
MAPA | METAR | TAF | METEO SITUÁCIA

METAR - Letisková meteo správa

Letisková meteorologická správa METAR

Meteorologické informácie z ďalších profesionálnych meteorologických staníc SHMÚ zobrazené v tvare zodpovedajúcom pravidlám kódovania správ METAR sú uvedené v položke „METSYN Informácie o správe METAR

24.09.2018 - 03:30 UTC

METAR LZIB 240330Z 33017KT 9999 BKN032 12/06 Q1016=
 METAR LZKZ 240330Z 23016KT 9999 FEW008 SCT018 BKN060 13/11 Q1007=
 METAR LZPP 240330Z AUTO 32015KT 9999 OVC036/// 11/06 Q1014=
 METAR LZSL 240330Z 33009KT 300V020 9999 SCT035 BKN043 13/07 Q1010=
 METAR LZTT 240330Z 22012KT 9999 FEW015 SCT043 BKN056 11/05 Q1006=
 METAR LZZI 240330Z 32008KT 290V060 9999 -RA BKN025 OVC030 09/05
 Q1014=
 

24.09.2018 - 03:00 UTC

METAR LZIB 240300Z 32020G33KT 9999 FEW024 BKN033 12/06 Q1015=
 METAR LZKZ 240300Z 21011KT 9999 -RA FEW010 BKN040 OVC080 13/11
 Q1006=
 METAR LZPP 240300Z AUTO 32018KT 9999 OVC032/// 11/07 Q1014=
 METAR LZSL 240300Z 31018G37KT 290V010 9999 FEW035 OVC046 14/08
 Q1008=
 METAR LZTT 240300Z 25024KT 9999 -RA FEW013 SCT050 BKN063 12/10
 Q1007=
 METAR LZZI 240300Z 32011KT 260V360 9999 SCT027 OVC038 10/05 Q1013=
 

24.09.2018 - 03:00 UTC

METAR LZMC 240300Z 33016G26KT 9999 BKN025 OVC038 11/06
 Q1016=
 METAR LZPW 240300Z 16011G30KT 9999 -RA NSC 13/11 Q1005=
 
načítavam...